Terminal Aerodrome Forecast
Issued by NWS Atlanta, GA

Home | Current Version | Previous Version | Text Only | Print | Product List | Glossary On
Versions: 1 2 3 4 5 6 7 8 9 10 11 12 13 14 15 16 17 18 19 20 21 22 23 24 25 26 27 28 29 30 31 32 33 34 35 36 37 38 39 40 41 42
000
FTUS42 KFFC 170332 AAC
TAFATL
TAF AMD
KATL 170332Z 1704/1806 09008KT P6SM OVC006
      TEMPO 1704/1707 4SM -RA BR OVC004
     FM170700 08006KT 1SM -RA BR OVC003
     FM171400 08003KT 3SM -RA BR OVC006
     FM171600 08003KT P6SM VCSH OVC009
     FM172000 10006KT P6SM OVC012
     FM180300 13003KT P6SM BKN009=

USA.gov is the U.S. government's official web portal to all federal, state and local government web resources and services.